Brandon Bordelon — WDI431 — position and weather

sailwx.info

Track history (hours):
 
Tides and Currents Weather Stations Pressure Air Temp Water Temp Dewpoint Dewpoint Depression Visibility Wind Speed Wind Dir Waves Ship Positions

Brandon Bordelon

Last reported at 2018-Jun-18 18:47 UTC. Time now 2018-Jun-18 19:34 UTC.
Position N 31°15' W 080°31'.

Length 87 m; draft 3.2 m.

MMSI: 367697440.

Date/timePositionNaut miles runAvg speedWind from/ knotsBaromVisibWave heightAir tempDewpointWater temp
2018-Jun-18 18:47N 31°15' W 080°31'4 9.0
2018-Jun-18 18:18N 31°19' W 080°29'5 9.1
2018-Jun-18 17:46N 31°23' W 080°26'24 9.5
2018-Jun-18 15:17N 31°44' W 080°13'3 9.7
2018-Jun-18 14:56N 31°47' W 080°11'5 9.7
2018-Jun-18 14:27N 31°51' W 080°09'10 9.9
2018-Jun-18 13:24N 31°60' W 080°02'236 9.1
2018-Jun-17 11:21N 34°24' W 076°19'148 6.8
2018-Jun-16 13:32N 36°53' W 076°20'0 5.5
2018-Jun-16 13:29N 36°52' W 076°20'2 4.2
2018-Jun-16 13:00N 36°51' W 076°18'0 0.2
2018-Jun-16 12:30N 36°51' W 076°18'0 0.0
2018-Jun-16 12:00N 36°51' W 076°18'0 0.0
2018-Jun-16 11:30N 36°51' W 076°18'0 0.0
2018-Jun-16 11:00N 36°51' W 076°18'0 0.0
2018-Jun-16 10:30N 36°51' W 076°18'0 0.0
2018-Jun-16 10:00N 36°51' W 076°18'0 0.0
2018-Jun-16 09:30N 36°51' W 076°18'0 0.0
2018-Jun-16 09:00N 36°51' W 076°18'0 0.0
2018-Jun-16 08:30N 36°51' W 076°18'0 0.0
2018-Jun-16 07:58N 36°51' W 076°18'0 0.0
2018-Jun-16 07:30N 36°51' W 076°18'0 0.0
2018-Jun-16 07:00N 36°51' W 076°18'0 0.0
2018-Jun-16 06:31N 36°51' W 076°18'0 0.0
2018-Jun-16 06:00N 36°51' W 076°18'0 0.0
2018-Jun-16 05:30N 36°51' W 076°18'0 0.0
2018-Jun-16 05:00N 36°51' W 076°18'0 0.0
2018-Jun-16 04:29N 36°51' W 076°18'0 0.0
2018-Jun-16 04:00N 36°51' W 076°18'0 0.0
2018-Jun-16 03:30N 36°51' W 076°18'0 0.0
2018-Jun-16 03:00N 36°51' W 076°18'0 0.0
2018-Jun-16 02:27N 36°51' W 076°18'0 0.0
2018-Jun-16 02:00N 36°51' W 076°18'0 0.0
2018-Jun-16 01:30N 36°51' W 076°18'0 0.0
2018-Jun-16 00:59N 36°51' W 076°18'0 0.0
2018-Jun-16 00:30N 36°51' W 076°18'0 0.0
2018-Jun-16 00:00N 36°51' W 076°18'0 0.0
2018-Jun-15 23:27N 36°51' W 076°18'0 0.0
2018-Jun-15 22:11N 36°51' W 076°18'0 0.0
2018-Jun-15 21:27N 36°51' W 076°18'0 0.0
2018-Jun-15 20:26N 36°51' W 076°18'0 0.0
2018-Jun-15 19:41N 36°51' W 076°18'0 0.0
2018-Jun-15 19:28N 36°51' W 076°18'0 0.0
2018-Jun-15 18:58N 36°51' W 076°18'0 0.0
2018-Jun-15 18:30N 36°51' W 076°18'1 2.7
2018-Jun-15 18:00N 36°52' W 076°19'  
Track history (hours):
 
Tides and Currents Weather Stations Pressure Air Temp Water Temp Dewpoint Dewpoint Depression Visibility Wind Speed Wind Dir Waves Ship Positions

Brandon Bordelon

Last reported at 2018-Jun-18 18:47 UTC. Time now 2018-Jun-18 19:34 UTC.
Position N 31°15' W 080°31'.

Length 87 m; draft 3.2 m.

MMSI: 367697440.

Date/timePositionNaut miles runAvg speedWind from/ knotsBaromVisibWave heightAir tempDewpointWater temp
2018-Jun-18 18:47N 31°15' W 080°31'4 9.0
2018-Jun-18 18:18N 31°19' W 080°29'5 9.1
2018-Jun-18 17:46N 31°23' W 080°26'24 9.5
2018-Jun-18 15:17N 31°44' W 080°13'3 9.7
2018-Jun-18 14:56N 31°47' W 080°11'5 9.7
2018-Jun-18 14:27N 31°51' W 080°09'10 9.9
2018-Jun-18 13:24N 31°60' W 080°02'236 9.1
2018-Jun-17 11:21N 34°24' W 076°19'148 6.8
2018-Jun-16 13:32N 36°53' W 076°20'0 5.5
2018-Jun-16 13:29N 36°52' W 076°20'2 4.2
2018-Jun-16 13:00N 36°51' W 076°18'0 0.2
2018-Jun-16 12:30N 36°51' W 076°18'0 0.0
2018-Jun-16 12:00N 36°51' W 076°18'0 0.0
2018-Jun-16 11:30N 36°51' W 076°18'0 0.0
2018-Jun-16 11:00N 36°51' W 076°18'0 0.0
2018-Jun-16 10:30N 36°51' W 076°18'0 0.0
2018-Jun-16 10:00N 36°51' W 076°18'0 0.0
2018-Jun-16 09:30N 36°51' W 076°18'0 0.0
2018-Jun-16 09:00N 36°51' W 076°18'0 0.0
2018-Jun-16 08:30N 36°51' W 076°18'0 0.0
2018-Jun-16 07:58N 36°51' W 076°18'0 0.0
2018-Jun-16 07:30N 36°51' W 076°18'0 0.0
2018-Jun-16 07:00N 36°51' W 076°18'0 0.0
2018-Jun-16 06:31N 36°51' W 076°18'0 0.0
2018-Jun-16 06:00N 36°51' W 076°18'0 0.0
2018-Jun-16 05:30N 36°51' W 076°18'0 0.0
2018-Jun-16 05:00N 36°51' W 076°18'0 0.0
2018-Jun-16 04:29N 36°51' W 076°18'0 0.0
2018-Jun-16 04:00N 36°51' W 076°18'0 0.0
2018-Jun-16 03:30N 36°51' W 076°18'0 0.0
2018-Jun-16 03:00N 36°51' W 076°18'0 0.0
2018-Jun-16 02:27N 36°51' W 076°18'0 0.0
2018-Jun-16 02:00N 36°51' W 076°18'0 0.0
2018-Jun-16 01:30N 36°51' W 076°18'0 0.0
2018-Jun-16 00:59N 36°51' W 076°18'0 0.0
2018-Jun-16 00:30N 36°51' W 076°18'0 0.0
2018-Jun-16 00:00N 36°51' W 076°18'0 0.0
2018-Jun-15 23:27N 36°51' W 076°18'0 0.0
2018-Jun-15 22:11N 36°51' W 076°18'0 0.0
2018-Jun-15 21:27N 36°51' W 076°18'0 0.0
2018-Jun-15 20:26N 36°51' W 076°18'0 0.0
2018-Jun-15 19:41N 36°51' W 076°18'0 0.0
2018-Jun-15 19:28N 36°51' W 076°18'0 0.0
2018-Jun-15 18:58N 36°51' W 076°18'0 0.0
2018-Jun-15 18:30N 36°51' W 076°18'1 2.7
2018-Jun-15 18:00N 36°52' W 076°19'  

Dump ship's entire track history